sensor_id;sensor_type;location;lat;lon;timestamp;P1;durP1;ratioP1;P2;durP2;ratioP2
36185;SDS011;22228;53.222;7.446;2023-11-19T00:00:09;28.83;;;23.67;;
36185;SDS011;22228;53.222;7.446;2023-11-19T00:02:30;29.77;;;23.40;;
36185;SDS011;22228;53.222;7.446;2023-11-19T00:04:51;24.97;;;21.10;;
36185;SDS011;22228;53.222;7.446;2023-11-19T00:07:11;24.70;;;21.83;;
36185;SDS011;22228;53.222;7.446;2023-11-19T00:09:32;23.43;;;20.27;;
36185;SDS011;22228;53.222;7.446;2023-11-19T00:11:55;23.10;;;20.00;;
36185;SDS011;22228;53.222;7.446;2023-11-19T00:14:17;26.17;;;22.20;;
36185;SDS011;22228;53.222;7.446;2023-11-19T00:16:38;23.37;;;20.10;;
36185;SDS011;22228;53.222;7.446;2023-11-19T00:18:58;22.93;;;19.70;;
36185;SDS011;22228;53.222;7.446;2023-11-19T00:21:19;22.60;;;19.93;;
36185;SDS011;22228;53.222;7.446;2023-11-19T00:23:40;22.87;;;18.63;;
36185;SDS011;22228;53.222;7.446;2023-11-19T00:26:01;22.47;;;19.13;;
36185;SDS011;22228;53.222;7.446;2023-11-19T00:28:24;24.77;;;19.47;;
36185;SDS011;22228;53.222;7.446;2023-11-19T00:30:46;20.90;;;18.13;;
36185;SDS011;22228;53.222;7.446;2023-11-19T00:33:06;22.50;;;19.00;;
36185;SDS011;22228;53.222;7.446;2023-11-19T00:35:27;25.67;;;19.60;;
36185;SDS011;22228;53.222;7.446;2023-11-19T00:37:47;23.07;;;18.83;;
36185;SDS011;22228;53.222;7.446;2023-11-19T00:40:09;21.33;;;17.97;;
36185;SDS011;22228;53.222;7.446;2023-11-19T00:42:30;23.87;;;19.93;;
36185;SDS011;22228;53.222;7.446;2023-11-19T00:44:50;25.27;;;20.50;;
36185;SDS011;22228;53.222;7.446;2023-11-19T00:47:12;25.63;;;19.87;;
36185;SDS011;22228;53.222;7.446;2023-11-19T00:49:32;25.00;;;19.47;;
36185;SDS011;22228;53.222;7.446;2023-11-19T00:51:53;24.97;;;20.17;;
36185;SDS011;22228;53.222;7.446;2023-11-19T00:54:14;25.67;;;18.90;;
36185;SDS011;22228;53.222;7.446;2023-11-19T00:56:34;23.33;;;18.57;;
36185;SDS011;22228;53.222;7.446;2023-11-19T00:58:56;22.17;;;17.97;;
36185;SDS011;22228;53.222;7.446;2023-11-19T01:01:16;20.37;;;17.43;;
36185;SDS011;22228;53.222;7.446;2023-11-19T01:03:39;22.07;;;17.90;;
36185;SDS011;22228;53.222;7.446;2023-11-19T01:05:59;21.67;;;17.30;;
36185;SDS011;22228;53.222;7.446;2023-11-19T01:08:21;21.33;;;17.20;;
36185;SDS011;22228;53.222;7.446;2023-11-19T01:10:44;22.77;;;17.60;;
36185;SDS011;22228;53.222;7.446;2023-11-19T01:13:04;22.67;;;16.73;;
36185;SDS011;22228;53.222;7.446;2023-11-19T04:02:18;23.07;;;6.20;;
36185;SDS011;22228;53.222;7.446;2023-11-19T04:04:39;30.77;;;7.07;;
36185;SDS011;22228;53.222;7.446;2023-11-19T04:07:00;28.90;;;6.70;;
36185;SDS011;22228;53.222;7.446;2023-11-19T04:09:22;28.50;;;6.00;;
36185;SDS011;22228;53.222;7.446;2023-11-19T04:11:42;30.53;;;7.03;;
36185;SDS011;22228;53.222;7.446;2023-11-19T04:14:05;37.27;;;7.53;;
36185;SDS011;22228;53.222;7.446;2023-11-19T04:16:26;34.50;;;7.10;;
36185;SDS011;22228;53.222;7.446;2023-11-19T04:18:49;30.50;;;6.00;;
36185;SDS011;22228;53.222;7.446;2023-11-19T04:21:10;29.60;;;6.27;;
36185;SDS011;22228;53.222;7.446;2023-11-19T04:23:31;27.03;;;6.90;;
36185;SDS011;22228;53.222;7.446;2023-11-19T04:25:51;34.90;;;7.23;;
36185;SDS011;22228;53.222;7.446;2023-11-19T04:28:12;32.40;;;7.53;;
36185;SDS011;22228;53.222;7.446;2023-11-19T04:30:33;30.77;;;7.13;;
36185;SDS011;22228;53.222;7.446;2023-11-19T04:32:54;33.70;;;6.67;;
36185;SDS011;22228;53.222;7.446;2023-11-19T04:35:16;31.17;;;6.27;;
36185;SDS011;22228;53.222;7.446;2023-11-19T04:37:37;26.33;;;6.27;;
36185;SDS011;22228;53.222;7.446;2023-11-19T04:39:58;34.63;;;6.43;;
36185;SDS011;22228;53.222;7.446;2023-11-19T04:42:19;25.63;;;5.60;;
36185;SDS011;22228;53.222;7.446;2023-11-19T04:44:42;30.77;;;5.93;;
36185;SDS011;22228;53.222;7.446;2023-11-19T04:47:03;33.07;;;5.93;;
36185;SDS011;22228;53.222;7.446;2023-11-19T04:49:23;22.57;;;5.60;;
36185;SDS011;22228;53.222;7.446;2023-11-19T04:51:47;25.90;;;6.80;;
36185;SDS011;22228;53.222;7.446;2023-11-19T04:54:08;31.00;;;6.80;;
36185;SDS011;22228;53.222;7.446;2023-11-19T04:56:28;31.50;;;6.57;;
36185;SDS011;22228;53.222;7.446;2023-11-19T04:58:48;30.63;;;7.13;;
36185;SDS011;22228;53.222;7.446;2023-11-19T05:01:13;32.60;;;7.17;;
36185;SDS011;22228;53.222;7.446;2023-11-19T05:03:35;27.37;;;6.70;;
36185;SDS011;22228;53.222;7.446;2023-11-19T05:05:55;29.87;;;6.30;;
36185;SDS011;22228;53.222;7.446;2023-11-19T05:08:17;35.63;;;6.90;;
36185;SDS011;22228;53.222;7.446;2023-11-19T05:10:38;26.63;;;6.10;;
36185;SDS011;22228;53.222;7.446;2023-11-19T05:12:59;28.23;;;6.57;;
36185;SDS011;22228;53.222;7.446;2023-11-19T05:15:19;31.00;;;7.00;;
36185;SDS011;22228;53.222;7.446;2023-11-19T05:17:40;30.87;;;6.47;;
36185;SDS011;22228;53.222;7.446;2023-11-19T05:20:01;31.23;;;6.33;;
36185;SDS011;22228;53.222;7.446;2023-11-19T05:22:21;31.93;;;7.00;;
36185;SDS011;22228;53.222;7.446;2023-11-19T05:24:43;24.90;;;5.40;;
36185;SDS011;22228;53.222;7.446;2023-11-19T05:27:04;34.93;;;6.97;;
36185;SDS011;22228;53.222;7.446;2023-11-19T05:29:25;33.40;;;8.07;;
36185;SDS011;22228;53.222;7.446;2023-11-19T05:31:46;39.23;;;6.87;;
36185;SDS011;22228;53.222;7.446;2023-11-19T05:34:06;30.50;;;6.77;;
36185;SDS011;22228;53.222;7.446;2023-11-19T05:36:27;28.53;;;7.10;;
36185;SDS011;22228;53.222;7.446;2023-11-19T05:38:47;30.07;;;6.40;;
36185;SDS011;22228;53.222;7.446;2023-11-19T05:41:09;28.43;;;6.80;;
36185;SDS011;22228;53.222;7.446;2023-11-19T05:43:30;34.27;;;6.97;;
36185;SDS011;22228;53.222;7.446;2023-11-19T05:45:50;34.50;;;7.70;;
36185;SDS011;22228;53.222;7.446;2023-11-19T05:48:10;35.90;;;7.33;;
36185;SDS011;22228;53.222;7.446;2023-11-19T05:50:31;34.83;;;7.67;;
36185;SDS011;22228;53.222;7.446;2023-11-19T05:52:51;33.50;;;6.77;;
36185;SDS011;22228;53.222;7.446;2023-11-19T05:55:12;33.10;;;7.23;;
36185;SDS011;22228;53.222;7.446;2023-11-19T05:57:34;35.17;;;7.20;;
36185;SDS011;22228;53.222;7.446;2023-11-19T05:59:55;31.90;;;7.03;;
36185;SDS011;22228;53.222;7.446;2023-11-19T06:02:15;39.73;;;6.90;;
36185;SDS011;22228;53.222;7.446;2023-11-19T06:04:36;42.57;;;8.00;;
36185;SDS011;22228;53.222;7.446;2023-11-19T06:06:56;41.90;;;8.80;;
36185;SDS011;22228;53.222;7.446;2023-11-19T06:09:17;35.73;;;7.47;;
36185;SDS011;22228;53.222;7.446;2023-11-19T06:11:37;30.73;;;7.33;;
36185;SDS011;22228;53.222;7.446;2023-11-19T06:13:59;33.37;;;7.37;;
36185;SDS011;22228;53.222;7.446;2023-11-19T06:16:20;29.03;;;6.30;;
36185;SDS011;22228;53.222;7.446;2023-11-19T06:18:40;35.27;;;8.23;;
36185;SDS011;22228;53.222;7.446;2023-11-19T06:21:02;29.80;;;7.30;;
36185;SDS011;22228;53.222;7.446;2023-11-19T06:23:23;32.80;;;7.20;;
36185;SDS011;22228;53.222;7.446;2023-11-19T06:25:43;40.50;;;7.90;;
36185;SDS011;22228;53.222;7.446;2023-11-19T06:28:04;38.33;;;7.77;;
36185;SDS011;22228;53.222;7.446;2023-11-19T06:30:26;37.13;;;8.30;;
36185;SDS011;22228;53.222;7.446;2023-11-19T06:32:46;28.73;;;6.77;;
36185;SDS011;22228;53.222;7.446;2023-11-19T06:35:07;34.67;;;7.23;;
36185;SDS011;22228;53.222;7.446;2023-11-19T06:37:28;36.20;;;7.17;;
36185;SDS011;22228;53.222;7.446;2023-11-19T06:39:48;44.17;;;9.23;;
36185;SDS011;22228;53.222;7.446;2023-11-19T06:42:09;32.13;;;7.20;;
36185;SDS011;22228;53.222;7.446;2023-11-19T06:44:29;42.57;;;7.30;;
36185;SDS011;22228;53.222;7.446;2023-11-19T06:46:51;34.20;;;7.07;;
36185;SDS011;22228;53.222;7.446;2023-11-19T06:49:12;31.03;;;7.53;;
36185;SDS011;22228;53.222;7.446;2023-11-19T06:51:32;39.03;;;8.20;;
36185;SDS011;22228;53.222;7.446;2023-11-19T06:53:53;30.57;;;6.67;;
36185;SDS011;22228;53.222;7.446;2023-11-19T06:56:18;33.90;;;6.97;;
36185;SDS011;22228;53.222;7.446;2023-11-19T06:58:40;24.00;;;6.67;;
36185;SDS011;22228;53.222;7.446;2023-11-19T07:01:00;40.57;;;7.60;;
36185;SDS011;22228;53.222;7.446;2023-11-19T07:03:22;30.70;;;7.00;;
36185;SDS011;22228;53.222;7.446;2023-11-19T07:05:43;40.20;;;7.20;;
36185;SDS011;22228;53.222;7.446;2023-11-19T07:08:03;38.97;;;7.17;;
36185;SDS011;22228;53.222;7.446;2023-11-19T07:10:25;36.33;;;7.37;;
36185;SDS011;22228;53.222;7.446;2023-11-19T07:12:46;37.10;;;7.67;;
36185;SDS011;22228;53.222;7.446;2023-11-19T07:15:09;39.67;;;7.30;;
36185;SDS011;22228;53.222;7.446;2023-11-19T07:17:29;41.50;;;8.07;;
36185;SDS011;22228;53.222;7.446;2023-11-19T07:19:51;31.27;;;6.87;;
36185;SDS011;22228;53.222;7.446;2023-11-19T07:22:11;31.53;;;7.40;;
36185;SDS011;22228;53.222;7.446;2023-11-19T07:24:32;40.60;;;6.97;;
36185;SDS011;22228;53.222;7.446;2023-11-19T07:26:53;29.10;;;6.30;;
36185;SDS011;22228;53.222;7.446;2023-11-19T07:29:13;34.33;;;7.33;;
36185;SDS011;22228;53.222;7.446;2023-11-19T07:31:35;36.03;;;7.77;;
36185;SDS011;22228;53.222;7.446;2023-11-19T07:33:55;36.80;;;7.40;;
36185;SDS011;22228;53.222;7.446;2023-11-19T07:36:17;36.50;;;7.83;;
36185;SDS011;22228;53.222;7.446;2023-11-19T07:38:37;36.47;;;8.07;;
36185;SDS011;22228;53.222;7.446;2023-11-19T07:40:58;41.93;;;8.37;;
36185;SDS011;22228;53.222;7.446;2023-11-19T07:43:19;38.67;;;7.43;;
36185;SDS011;22228;53.222;7.446;2023-11-19T07:45:39;36.97;;;8.33;;
36185;SDS011;22228;53.222;7.446;2023-11-19T07:48:02;31.07;;;6.47;;
36185;SDS011;22228;53.222;7.446;2023-11-19T07:50:23;35.03;;;7.10;;
36185;SDS011;22228;53.222;7.446;2023-11-19T07:52:45;32.87;;;7.30;;
36185;SDS011;22228;53.222;7.446;2023-11-19T07:55:06;32.03;;;8.20;;
36185;SDS011;22228;53.222;7.446;2023-11-19T07:57:26;30.07;;;6.67;;
36185;SDS011;22228;53.222;7.446;2023-11-19T07:59:49;32.63;;;7.13;;
36185;SDS011;22228;53.222;7.446;2023-11-19T08:02:10;33.70;;;6.93;;
36185;SDS011;22228;53.222;7.446;2023-11-19T08:04:30;31.93;;;7.70;;
36185;SDS011;22228;53.222;7.446;2023-11-19T08:06:51;36.30;;;7.63;;
36185;SDS011;22228;53.222;7.446;2023-11-19T08:09:13;37.43;;;7.47;;
36185;SDS011;22228;53.222;7.446;2023-11-19T08:11:33;35.93;;;7.57;;
36185;SDS011;22228;53.222;7.446;2023-11-19T08:13:53;39.50;;;7.73;;
36185;SDS011;22228;53.222;7.446;2023-11-19T08:16:14;34.67;;;7.70;;
36185;SDS011;22228;53.222;7.446;2023-11-19T08:18:35;35.20;;;7.83;;
36185;SDS011;22228;53.222;7.446;2023-11-19T08:20:56;41.83;;;7.67;;
36185;SDS011;22228;53.222;7.446;2023-11-19T08:23:18;37.03;;;7.23;;
36185;SDS011;22228;53.222;7.446;2023-11-19T08:25:40;38.10;;;8.00;;
36185;SDS011;22228;53.222;7.446;2023-11-19T08:28:00;39.80;;;7.10;;
36185;SDS011;22228;53.222;7.446;2023-11-19T08:30:22;34.67;;;6.83;;
36185;SDS011;22228;53.222;7.446;2023-11-19T08:32:43;34.90;;;7.00;;
36185;SDS011;22228;53.222;7.446;2023-11-19T08:35:03;42.10;;;7.57;;
36185;SDS011;22228;53.222;7.446;2023-11-19T08:37:24;29.57;;;6.50;;
36185;SDS011;22228;53.222;7.446;2023-11-19T08:39:45;39.67;;;8.10;;
36185;SDS011;22228;53.222;7.446;2023-11-19T08:42:07;35.97;;;7.70;;
36185;SDS011;22228;53.222;7.446;2023-11-19T08:44:27;32.57;;;7.47;;
36185;SDS011;22228;53.222;7.446;2023-11-19T08:46:48;38.90;;;8.70;;
36185;SDS011;22228;53.222;7.446;2023-11-19T08:49:08;34.37;;;6.67;;
36185;SDS011;22228;53.222;7.446;2023-11-19T08:51:29;37.40;;;7.63;;
36185;SDS011;22228;53.222;7.446;2023-11-19T08:53:49;36.50;;;7.30;;
36185;SDS011;22228;53.222;7.446;2023-11-19T08:56:10;31.07;;;7.53;;
36185;SDS011;22228;53.222;7.446;2023-11-19T08:58:32;35.80;;;6.50;;
36185;SDS011;22228;53.222;7.446;2023-11-19T09:00:52;42.07;;;7.60;;
36185;SDS011;22228;53.222;7.446;2023-11-19T09:03:13;35.33;;;7.17;;
36185;SDS011;22228;53.222;7.446;2023-11-19T09:05:33;37.47;;;7.20;;
36185;SDS011;22228;53.222;7.446;2023-11-19T09:07:54;36.17;;;7.33;;
36185;SDS011;22228;53.222;7.446;2023-11-19T09:10:14;34.77;;;6.50;;
36185;SDS011;22228;53.222;7.446;2023-11-19T09:12:35;37.40;;;7.70;;
36185;SDS011;22228;53.222;7.446;2023-11-19T09:14:57;42.00;;;8.30;;
36185;SDS011;22228;53.222;7.446;2023-11-19T09:17:17;41.23;;;9.37;;
36185;SDS011;22228;53.222;7.446;2023-11-19T09:19:38;40.13;;;8.60;;
36185;SDS011;22228;53.222;7.446;2023-11-19T09:21:58;37.73;;;8.17;;
36185;SDS011;22228;53.222;7.446;2023-11-19T09:24:19;40.50;;;7.63;;
36185;SDS011;22228;53.222;7.446;2023-11-19T09:26:39;34.07;;;7.67;;
36185;SDS011;22228;53.222;7.446;2023-11-19T09:29:00;37.30;;;7.07;;
36185;SDS011;22228;53.222;7.446;2023-11-19T09:31:21;34.57;;;8.20;;
36185;SDS011;22228;53.222;7.446;2023-11-19T09:33:42;43.07;;;8.30;;
36185;SDS011;22228;53.222;7.446;2023-11-19T09:36:03;46.30;;;8.53;;
36185;SDS011;22228;53.222;7.446;2023-11-19T09:38:24;37.67;;;7.47;;
36185;SDS011;22228;53.222;7.446;2023-11-19T09:40:45;39.97;;;8.40;;
36185;SDS011;22228;53.222;7.446;2023-11-19T09:43:06;35.30;;;7.33;;
36185;SDS011;22228;53.222;7.446;2023-11-19T09:45:27;44.83;;;7.63;;
36185;SDS011;22228;53.222;7.446;2023-11-19T09:47:50;34.17;;;7.20;;
36185;SDS011;22228;53.222;7.446;2023-11-19T09:50:14;42.33;;;7.57;;
36185;SDS011;22228;53.222;7.446;2023-11-19T09:52:37;44.40;;;9.17;;
36185;SDS011;22228;53.222;7.446;2023-11-19T09:54:57;43.13;;;7.93;;
36185;SDS011;22228;53.222;7.446;2023-11-19T09:57:18;36.27;;;7.67;;
36185;SDS011;22228;53.222;7.446;2023-11-19T09:59:39;40.07;;;8.23;;
36185;SDS011;22228;53.222;7.446;2023-11-19T10:02:00;35.60;;;7.67;;
36185;SDS011;22228;53.222;7.446;2023-11-19T10:04:24;43.00;;;8.40;;
36185;SDS011;22228;53.222;7.446;2023-11-19T10:06:49;33.30;;;7.30;;
36185;SDS011;22228;53.222;7.446;2023-11-19T10:09:11;39.23;;;7.17;;
36185;SDS011;22228;53.222;7.446;2023-11-19T10:11:34;40.70;;;7.27;;
36185;SDS011;22228;53.222;7.446;2023-11-19T10:13:54;40.10;;;8.13;;
36185;SDS011;22228;53.222;7.446;2023-11-19T10:16:15;45.80;;;8.77;;
36185;SDS011;22228;53.222;7.446;2023-11-19T10:18:37;39.33;;;7.83;;
36185;SDS011;22228;53.222;7.446;2023-11-19T10:21:03;43.23;;;8.20;;
36185;SDS011;22228;53.222;7.446;2023-11-19T10:23:25;38.40;;;8.30;;
36185;SDS011;22228;53.222;7.446;2023-11-19T10:25:46;34.67;;;7.80;;
36185;SDS011;22228;53.222;7.446;2023-11-19T10:28:07;41.40;;;8.87;;
36185;SDS011;22228;53.222;7.446;2023-11-19T10:30:28;34.13;;;7.47;;
36185;SDS011;22228;53.222;7.446;2023-11-19T10:33:04;39.00;;;7.90;;
36185;SDS011;22228;53.222;7.446;2023-11-19T10:35:26;37.43;;;7.50;;
36185;SDS011;22228;53.222;7.446;2023-11-19T10:37:47;43.10;;;7.57;;
36185;SDS011;22228;53.222;7.446;2023-11-19T10:40:08;37.57;;;7.47;;
36185;SDS011;22228;53.222;7.446;2023-11-19T10:42:30;37.57;;;7.87;;
36185;SDS011;22228;53.222;7.446;2023-11-19T10:44:50;34.47;;;8.37;;
36185;SDS011;22228;53.222;7.446;2023-11-19T10:47:11;36.43;;;8.20;;
36185;SDS011;22228;53.222;7.446;2023-11-19T10:49:36;40.57;;;8.60;;
36185;SDS011;22228;53.222;7.446;2023-11-19T10:51:57;40.20;;;8.80;;
36185;SDS011;22228;53.222;7.446;2023-11-19T10:54:20;34.40;;;7.80;;
36185;SDS011;22228;53.222;7.446;2023-11-19T10:56:41;40.67;;;8.47;;
36185;SDS011;22228;53.222;7.446;2023-11-19T10:59:04;39.03;;;7.93;;
36185;SDS011;22228;53.222;7.446;2023-11-19T11:01:26;36.27;;;7.37;;
36185;SDS011;22228;53.222;7.446;2023-11-19T11:03:52;38.90;;;7.53;;
36185;SDS011;22228;53.222;7.446;2023-11-19T11:06:15;34.90;;;7.57;;
36185;SDS011;22228;53.222;7.446;2023-11-19T11:08:36;32.03;;;6.60;;
36185;SDS011;22228;53.222;7.446;2023-11-19T11:10:59;43.17;;;8.33;;
36185;SDS011;22228;53.222;7.446;2023-11-19T11:13:22;25.93;;;6.73;;
36185;SDS011;22228;53.222;7.446;2023-11-19T11:15:43;32.70;;;7.13;;
36185;SDS011;22228;53.222;7.446;2023-11-19T11:18:05;29.17;;;6.60;;
36185;SDS011;22228;53.222;7.446;2023-11-19T11:20:29;33.67;;;7.13;;
36185;SDS011;22228;53.222;7.446;2023-11-19T11:22:55;29.67;;;7.40;;
36185;SDS011;22228;53.222;7.446;2023-11-19T11:25:29;28.47;;;5.93;;
36185;SDS011;22228;53.222;7.446;2023-11-19T11:28:13;30.53;;;7.03;;
36185;SDS011;22228;53.222;7.446;2023-11-19T11:30:53;28.90;;;6.03;;
36185;SDS011;22228;53.222;7.446;2023-11-19T11:33:31;26.00;;;6.17;;
36185;SDS011;22228;53.222;7.446;2023-11-19T11:36:03;28.13;;;6.37;;
36185;SDS011;22228;53.222;7.446;2023-11-19T11:38:33;33.43;;;7.43;;
36185;SDS011;22228;53.222;7.446;2023-11-19T11:41:17;27.23;;;6.10;;
36185;SDS011;22228;53.222;7.446;2023-11-19T11:43:47;32.33;;;6.83;;
36185;SDS011;22228;53.222;7.446;2023-11-19T11:46:08;34.70;;;6.80;;
36185;SDS011;22228;53.222;7.446;2023-11-19T11:48:28;33.17;;;7.20;;
36185;SDS011;22228;53.222;7.446;2023-11-19T11:50:52;37.20;;;7.87;;
36185;SDS011;22228;53.222;7.446;2023-11-19T11:53:15;25.43;;;6.27;;
36185;SDS011;22228;53.222;7.446;2023-11-19T11:55:36;34.50;;;7.60;;
36185;SDS011;22228;53.222;7.446;2023-11-19T11:58:11;30.57;;;7.07;;
36185;SDS011;22228;53.222;7.446;2023-11-19T12:00:37;23.73;;;5.87;;
36185;SDS011;22228;53.222;7.446;2023-11-19T12:02:58;33.60;;;6.00;;
36185;SDS011;22228;53.222;7.446;2023-11-19T12:05:20;27.30;;;6.03;;
36185;SDS011;22228;53.222;7.446;2023-11-19T12:07:41;30.60;;;5.83;;
36185;SDS011;22228;53.222;7.446;2023-11-19T12:10:16;27.60;;;5.73;;
36185;SDS011;22228;53.222;7.446;2023-11-19T12:12:40;31.10;;;6.53;;
36185;SDS011;22228;53.222;7.446;2023-11-19T12:15:02;29.83;;;6.33;;
36185;SDS011;22228;53.222;7.446;2023-11-19T12:17:41;25.60;;;5.27;;
36185;SDS011;22228;53.222;7.446;2023-11-19T12:20:09;25.73;;;6.20;;
36185;SDS011;22228;53.222;7.446;2023-11-19T12:22:29;23.10;;;5.60;;
36185;SDS011;22228;53.222;7.446;2023-11-19T12:24:50;28.43;;;5.63;;
36185;SDS011;22228;53.222;7.446;2023-11-19T12:27:10;29.17;;;6.67;;
36185;SDS011;22228;53.222;7.446;2023-11-19T12:29:41;29.57;;;5.57;;
36185;SDS011;22228;53.222;7.446;2023-11-19T12:32:03;26.73;;;5.77;;
36185;SDS011;22228;53.222;7.446;2023-11-19T12:34:24;31.43;;;7.90;;
36185;SDS011;22228;53.222;7.446;2023-11-19T12:36:46;27.20;;;6.17;;
36185;SDS011;22228;53.222;7.446;2023-11-19T12:39:06;24.50;;;6.40;;
36185;SDS011;22228;53.222;7.446;2023-11-19T12:41:28;35.20;;;7.10;;
36185;SDS011;22228;53.222;7.446;2023-11-19T12:43:49;35.90;;;5.87;;
36185;SDS011;22228;53.222;7.446;2023-11-19T12:46:16;30.63;;;7.30;;
36185;SDS011;22228;53.222;7.446;2023-11-19T12:48:38;28.87;;;6.23;;
36185;SDS011;22228;53.222;7.446;2023-11-19T12:51:02;27.63;;;5.83;;
36185;SDS011;22228;53.222;7.446;2023-11-19T12:53:23;30.30;;;5.73;;
36185;SDS011;22228;53.222;7.446;2023-11-19T12:55:44;29.30;;;6.90;;
36185;SDS011;22228;53.222;7.446;2023-11-19T12:58:05;29.93;;;6.13;;
36185;SDS011;22228;53.222;7.446;2023-11-19T13:00:26;27.40;;;5.67;;
36185;SDS011;22228;53.222;7.446;2023-11-19T13:02:47;24.87;;;5.00;;
36185;SDS011;22228;53.222;7.446;2023-11-19T13:05:19;21.07;;;5.10;;
36185;SDS011;22228;53.222;7.446;2023-11-19T13:07:46;30.93;;;6.93;;
36185;SDS011;22228;53.222;7.446;2023-11-19T13:10:07;32.90;;;6.00;;
36185;SDS011;22228;53.222;7.446;2023-11-19T13:12:28;27.53;;;5.67;;
36185;SDS011;22228;53.222;7.446;2023-11-19T13:14:48;25.80;;;5.50;;
36185;SDS011;22228;53.222;7.446;2023-11-19T13:17:12;23.77;;;5.87;;
36185;SDS011;22228;53.222;7.446;2023-11-19T13:19:33;23.10;;;5.53;;
36185;SDS011;22228;53.222;7.446;2023-11-19T13:21:54;31.00;;;5.70;;
36185;SDS011;22228;53.222;7.446;2023-11-19T13:24:16;29.33;;;5.60;;
36185;SDS011;22228;53.222;7.446;2023-11-19T13:26:36;24.30;;;5.73;;
36185;SDS011;22228;53.222;7.446;2023-11-19T13:28:58;32.17;;;6.20;;
36185;SDS011;22228;53.222;7.446;2023-11-19T13:31:18;30.47;;;5.80;;
36185;SDS011;22228;53.222;7.446;2023-11-19T13:33:39;32.70;;;6.73;;
36185;SDS011;22228;53.222;7.446;2023-11-19T13:35:59;28.13;;;6.33;;
36185;SDS011;22228;53.222;7.446;2023-11-19T13:38:24;29.43;;;5.67;;
36185;SDS011;22228;53.222;7.446;2023-11-19T13:40:46;28.50;;;5.90;;
36185;SDS011;22228;53.222;7.446;2023-11-19T13:43:06;31.37;;;5.30;;
36185;SDS011;22228;53.222;7.446;2023-11-19T13:45:27;30.40;;;6.10;;
36185;SDS011;22228;53.222;7.446;2023-11-19T13:47:48;27.90;;;6.30;;
36185;SDS011;22228;53.222;7.446;2023-11-19T13:50:08;30.33;;;6.87;;
36185;SDS011;22228;53.222;7.446;2023-11-19T13:52:30;30.70;;;6.40;;
36185;SDS011;22228;53.222;7.446;2023-11-19T13:54:50;22.10;;;5.97;;
36185;SDS011;22228;53.222;7.446;2023-11-19T13:57:12;29.40;;;6.27;;
36185;SDS011;22228;53.222;7.446;2023-11-19T13:59:33;26.80;;;5.63;;
36185;SDS011;22228;53.222;7.446;2023-11-19T14:01:59;33.07;;;6.70;;
36185;SDS011;22228;53.222;7.446;2023-11-19T14:04:19;33.40;;;6.90;;
36185;SDS011;22228;53.222;7.446;2023-11-19T14:06:40;35.13;;;5.87;;
36185;SDS011;22228;53.222;7.446;2023-11-19T14:09:00;30.67;;;6.10;;
36185;SDS011;22228;53.222;7.446;2023-11-19T14:11:25;27.60;;;7.30;;
36185;SDS011;22228;53.222;7.446;2023-11-19T14:13:47;27.80;;;6.10;;
36185;SDS011;22228;53.222;7.446;2023-11-19T14:16:08;28.73;;;6.97;;
36185;SDS011;22228;53.222;7.446;2023-11-19T14:18:29;35.77;;;7.63;;
36185;SDS011;22228;53.222;7.446;2023-11-19T14:20:53;32.73;;;7.50;;
36185;SDS011;22228;53.222;7.446;2023-11-19T14:23:14;34.60;;;7.03;;
36185;SDS011;22228;53.222;7.446;2023-11-19T14:25:35;29.77;;;6.93;;
36185;SDS011;22228;53.222;7.446;2023-11-19T14:27:55;32.40;;;7.17;;
36185;SDS011;22228;53.222;7.446;2023-11-19T14:30:17;31.67;;;5.83;;
36185;SDS011;22228;53.222;7.446;2023-11-19T14:32:38;29.17;;;5.97;;
36185;SDS011;22228;53.222;7.446;2023-11-19T14:35:01;35.83;;;7.43;;
36185;SDS011;22228;53.222;7.446;2023-11-19T14:37:22;31.73;;;6.77;;
36185;SDS011;22228;53.222;7.446;2023-11-19T14:39:43;33.07;;;6.53;;
36185;SDS011;22228;53.222;7.446;2023-11-19T14:42:05;35.30;;;7.40;;
36185;SDS011;22228;53.222;7.446;2023-11-19T14:44:25;29.60;;;6.00;;
36185;SDS011;22228;53.222;7.446;2023-11-19T14:46:47;29.70;;;6.27;;
36185;SDS011;22228;53.222;7.446;2023-11-19T14:49:07;40.07;;;7.53;;
36185;SDS011;22228;53.222;7.446;2023-11-19T14:51:28;37.30;;;6.27;;
36185;SDS011;22228;53.222;7.446;2023-11-19T14:53:49;25.73;;;6.90;;
36185;SDS011;22228;53.222;7.446;2023-11-19T14:56:10;27.77;;;6.63;;
36185;SDS011;22228;53.222;7.446;2023-11-19T14:58:31;33.83;;;7.07;;
36185;SDS011;22228;53.222;7.446;2023-11-19T15:00:52;31.47;;;6.23;;
36185;SDS011;22228;53.222;7.446;2023-11-19T15:03:14;33.30;;;6.47;;
36185;SDS011;22228;53.222;7.446;2023-11-19T15:05:37;37.33;;;7.20;;
36185;SDS011;22228;53.222;7.446;2023-11-19T15:07:58;39.47;;;7.33;;
36185;SDS011;22228;53.222;7.446;2023-11-19T15:10:18;29.97;;;5.50;;
36185;SDS011;22228;53.222;7.446;2023-11-19T15:12:39;32.27;;;6.43;;
36185;SDS011;22228;53.222;7.446;2023-11-19T15:15:00;33.37;;;7.20;;
36185;SDS011;22228;53.222;7.446;2023-11-19T15:17:21;30.23;;;7.03;;
36185;SDS011;22228;53.222;7.446;2023-11-19T15:19:43;27.47;;;6.37;;
36185;SDS011;22228;53.222;7.446;2023-11-19T15:22:04;25.10;;;6.27;;
36185;SDS011;22228;53.222;7.446;2023-11-19T15:24:25;36.40;;;5.97;;
36185;SDS011;22228;53.222;7.446;2023-11-19T15:26:47;30.83;;;7.20;;
36185;SDS011;22228;53.222;7.446;2023-11-19T15:29:08;33.73;;;7.83;;
36185;SDS011;22228;53.222;7.446;2023-11-19T15:31:28;30.50;;;7.60;;
36185;SDS011;22228;53.222;7.446;2023-11-19T15:33:49;35.80;;;6.87;;
36185;SDS011;22228;53.222;7.446;2023-11-19T15:36:11;25.93;;;6.63;;
36185;SDS011;22228;53.222;7.446;2023-11-19T15:38:31;33.60;;;6.73;;
36185;SDS011;22228;53.222;7.446;2023-11-19T15:40:52;34.13;;;7.17;;
36185;SDS011;22228;53.222;7.446;2023-11-19T15:43:13;33.10;;;6.90;;
36185;SDS011;22228;53.222;7.446;2023-11-19T15:45:34;37.70;;;7.88;;
36185;SDS011;22228;53.222;7.446;2023-11-19T15:47:56;31.83;;;6.63;;
36185;SDS011;22228;53.222;7.446;2023-11-19T15:50:16;27.63;;;6.43;;
36185;SDS011;22228;53.222;7.446;2023-11-19T15:52:39;25.97;;;6.53;;
36185;SDS011;22228;53.222;7.446;2023-11-19T15:55:03;28.53;;;6.33;;
36185;SDS011;22228;53.222;7.446;2023-11-19T15:57:24;35.57;;;6.90;;
36185;SDS011;22228;53.222;7.446;2023-11-19T15:59:44;32.27;;;6.07;;
36185;SDS011;22228;53.222;7.446;2023-11-19T16:02:06;29.00;;;5.63;;
36185;SDS011;22228;53.222;7.446;2023-11-19T16:04:27;31.63;;;7.27;;
36185;SDS011;22228;53.222;7.446;2023-11-19T16:06:48;31.93;;;6.20;;
36185;SDS011;22228;53.222;7.446;2023-11-19T16:09:09;35.80;;;6.30;;
36185;SDS011;22228;53.222;7.446;2023-11-19T16:11:33;28.83;;;5.80;;
36185;SDS011;22228;53.222;7.446;2023-11-19T16:13:54;28.50;;;6.27;;
36185;SDS011;22228;53.222;7.446;2023-11-19T16:16:15;33.27;;;5.83;;
36185;SDS011;22228;53.222;7.446;2023-11-19T16:18:35;23.53;;;5.17;;
36185;SDS011;22228;53.222;7.446;2023-11-19T16:20:56;30.63;;;6.17;;
36185;SDS011;22228;53.222;7.446;2023-11-19T16:23:17;38.43;;;7.57;;
36185;SDS011;22228;53.222;7.446;2023-11-19T16:25:39;31.93;;;6.27;;
36185;SDS011;22228;53.222;7.446;2023-11-19T16:28:00;39.07;;;7.67;;
36185;SDS011;22228;53.222;7.446;2023-11-19T16:30:20;30.77;;;6.47;;
36185;SDS011;22228;53.222;7.446;2023-11-19T16:32:47;28.70;;;5.97;;
36185;SDS011;22228;53.222;7.446;2023-11-19T16:35:10;33.97;;;6.27;;
36185;SDS011;22228;53.222;7.446;2023-11-19T16:37:31;30.33;;;7.80;;
36185;SDS011;22228;53.222;7.446;2023-11-19T16:39:51;43.53;;;8.00;;
36185;SDS011;22228;53.222;7.446;2023-11-19T16:42:13;32.00;;;7.20;;
36185;SDS011;22228;53.222;7.446;2023-11-19T16:44:34;25.03;;;5.53;;
36185;SDS011;22228;53.222;7.446;2023-11-19T16:46:54;33.13;;;6.20;;